Terminal Aerodrome Forecast
Issued by NWS Tulsa, OK

Home | Current Version | Previous Version | Text Only | Print | Product List | Glossary On
Versions: 1 2 3 4 5 6 7 8 9 10 11 12 13
000
FTUS44 KTSA 311700
TAFFSM
TAF
KFSM 311732Z 3118/0118 35013KT P6SM BKN035
     FM312000 35013KT P6SM SKC
     FM010000 01005KT P6SM SKC
     FM011500 08005KT P6SM SKC=

USA.gov is the U.S. government's official web portal to all federal, state and local government web resources and services.